KCRW/CRW METAR and TAF weather

Enter ICAO airport designator
Station Type Date Time Source
KCRW METAR 2020/11/28 18:54 UTC NOAA

KCRW 281854Z VRB05KT 10SM SCT027 10/02 A3017 RMK AO2 SLP218 T01000017


Station Type Date Time Source
KCRW Decoded METAR 2020/11/28 18:54 UTC NOAA

YEAGER AIRPORT, WV, United States (KCRW) 38-22N 081-36W 309M
Nov 28, 2020 - 01:54 PM EST / 2020.11.28 1854 UTC
Wind: Variable at 6 MPH (5 KT):0
Visibility: 10 mile(s):0
Sky conditions: partly cloudy
Temperature: 50.0 F (10.0 C)
Dew Point: 35.1 F (1.7 C)
Relative Humidity: 56%
Pressure (altimeter): 30.17 in. Hg (1021 hPa)
ob: KCRW 281854Z VRB05KT 10SM SCT027 10/02 A3017 RMK AO2 SLP218 T01000017
cycle: 19

Station Type Date Time Source
KCRW TAF 2020/11/28 18:24 UTC NOAA

TAF KCRW 281723Z 2818/2918 26004KT P6SM BKN020
FM281900 30004KT P6SM SCT025
FM291000 00000KT 4SM BR SCT001
FM291300 00000KT P6SM SCT020

Example: see airport list